createdAt,value
2022-11-02T00:01:27.279Z,77.82
2022-11-02T00:03:55.764Z,77.58
2022-11-02T00:06:23.948Z,77.97
2022-11-02T00:08:53.569Z,77.91
2022-11-02T00:11:21.758Z,77.72
2022-11-02T00:13:50.050Z,77.68
2022-11-02T00:16:20.839Z,77.45
2022-11-02T00:18:52.560Z,77.41
2022-11-02T00:21:22.709Z,77.27
2022-11-02T00:23:51.291Z,77.06
2022-11-02T00:26:21.242Z,77.19
2022-11-02T00:28:49.660Z,77.55
2022-11-02T00:31:18.084Z,77.26
2022-11-02T00:33:46.296Z,76.70
2022-11-02T00:36:14.704Z,76.89
2022-11-02T00:38:42.925Z,76.85
2022-11-02T00:41:12.909Z,77.20
2022-11-02T00:43:42.700Z,76.91
2022-11-02T00:46:10.917Z,76.87
2022-11-02T00:48:39.350Z,77.36
2022-11-02T00:51:07.848Z,77.32
2022-11-02T00:53:36.405Z,77.10
2022-11-02T00:56:04.997Z,77.10
2022-11-02T00:58:34.113Z,76.98
2022-11-02T01:01:07.304Z,77.39
2022-11-02T01:03:36.921Z,77.41
2022-11-02T01:06:10.191Z,77.52
2022-11-02T01:08:39.157Z,77.27
2022-11-02T01:11:12.359Z,77.18
2022-11-02T01:13:40.666Z,77.09
2022-11-02T01:16:11.421Z,76.86
2022-11-02T01:18:40.270Z,76.96
2022-11-02T01:21:10.117Z,76.67
2022-11-02T01:23:39.629Z,76.79
2022-11-02T01:26:10.069Z,76.95
2022-11-02T01:28:39.359Z,76.72
2022-11-02T01:31:08.016Z,76.69
2022-11-02T01:33:38.590Z,76.48
2022-11-02T01:36:08.350Z,76.65
2022-11-02T01:38:36.646Z,77.20
2022-11-02T01:41:04.916Z,77.47
2022-11-02T01:43:35.423Z,77.25
2022-11-02T01:46:08.327Z,77.17
2022-11-02T01:48:45.426Z,77.42
2022-11-02T01:51:20.582Z,77.33
2022-11-02T01:53:52.348Z,77.32
2022-11-02T01:59:01.752Z,77.20
2022-11-02T02:01:31.246Z,77.50
2022-11-02T02:04:02.680Z,77.29
2022-11-02T02:06:35.762Z,77.70
2022-11-02T02:09:08.673Z,77.82
2022-11-02T02:11:39.005Z,77.76
2022-11-02T02:14:10.232Z,78.28
2022-11-02T02:16:58.614Z,77.84
2022-11-02T02:19:39.840Z,77.78
2022-11-02T02:22:21.589Z,77.74
2022-11-02T02:24:55.510Z,77.49
2022-11-02T02:27:30.882Z,77.78
2022-11-02T02:30:10.433Z,76.98
2022-11-02T02:32:46.382Z,77.81
2022-11-02T02:35:27.024Z,77.26
2022-11-02T02:37:59.839Z,77.61
2022-11-02T02:40:34.816Z,77.32
2022-11-02T02:43:09.542Z,77.29
2022-11-02T02:45:45.375Z,76.85
2022-11-02T02:48:19.538Z,76.96
2022-11-02T02:50:50.705Z,77.15
2022-11-02T02:53:26.289Z,77.11
2022-11-02T02:55:55.171Z,76.83
2022-11-02T02:58:28.028Z,76.76
2022-11-02T03:00:58.941Z,76.98
2022-11-02T03:03:31.253Z,76.45
2022-11-02T03:06:09.169Z,76.00
2022-11-02T03:08:42.210Z,76.24
2022-11-02T03:11:15.194Z,76.70
2022-11-02T03:14:07.929Z,76.40
2022-11-02T03:17:05.383Z,76.13
2022-11-02T03:19:43.995Z,76.71
2022-11-02T03:22:22.826Z,76.34
2022-11-02T03:25:00.400Z,76.60
2022-11-02T03:27:38.660Z,76.44
2022-11-02T03:30:11.329Z,76.47
2022-11-02T03:32:49.941Z,76.15
2022-11-02T03:35:22.757Z,75.61
2022-11-02T03:37:57.569Z,75.16
2022-11-02T03:40:30.645Z,75.44
2022-11-02T03:43:01.951Z,75.31
2022-11-02T03:45:37.075Z,75.15
2022-11-02T03:48:10.081Z,75.38
2022-11-02T03:50:43.316Z,75.18
2022-11-02T03:53:16.482Z,75.72
2022-11-02T03:55:52.165Z,75.23
2022-11-02T03:58:21.128Z,75.39
2022-11-02T04:00:53.056Z,75.77
2022-11-02T04:03:25.524Z,75.24
2022-11-02T04:05:55.454Z,75.65
2022-11-02T04:08:35.516Z,75.27
2022-11-02T04:11:25.168Z,75.36
2022-11-02T04:14:13.171Z,75.12
2022-11-02T04:16:43.750Z,74.94
2022-11-02T04:19:30.001Z,74.98
2022-11-02T04:22:22.052Z,74.92
2022-11-02T04:25:12.619Z,75.50
2022-11-02T04:27:42.562Z,75.10
2022-11-02T04:30:12.887Z,75.54
2022-11-02T04:32:59.551Z,75.49
2022-11-02T04:35:32.939Z,76.22
2022-11-02T04:38:19.141Z,76.46
2022-11-02T04:40:47.469Z,76.28
2022-11-02T04:43:15.860Z,76.30
2022-11-02T04:45:44.440Z,76.10
2022-11-02T04:48:12.955Z,76.19
2022-11-02T04:50:42.696Z,76.54
2022-11-02T04:53:10.948Z,76.67
2022-11-02T04:55:41.019Z,76.63
2022-11-02T04:58:09.270Z,76.65
2022-11-02T05:00:38.181Z,76.33
2022-11-02T05:03:12.326Z,76.30
2022-11-02T05:05:43.716Z,75.61
2022-11-02T05:08:12.550Z,76.11
2022-11-02T05:10:40.837Z,75.81
2022-11-02T05:13:11.789Z,76.08
2022-11-02T05:15:40.379Z,75.65
2022-11-02T05:18:11.631Z,75.62
2022-11-02T05:20:43.580Z,75.61
2022-11-02T05:23:11.911Z,75.95
2022-11-02T05:25:40.293Z,75.70
2022-11-02T05:28:08.821Z,75.47
2022-11-02T05:30:37.258Z,75.09
2022-11-02T05:33:05.849Z,75.34
2022-11-02T05:35:34.393Z,75.17
2022-11-02T05:38:04.165Z,75.73
2022-11-02T05:40:33.859Z,75.98
2022-11-02T05:43:03.198Z,76.17
2022-11-02T05:45:32.231Z,76.05
2022-11-02T05:48:02.437Z,76.36
2022-11-02T05:50:30.813Z,76.59
2022-11-02T05:53:01.024Z,76.56
2022-11-02T05:55:30.784Z,76.62
2022-11-02T05:57:59.005Z,76.07
2022-11-02T06:00:27.248Z,76.53
2022-11-02T06:02:58.975Z,76.23
2022-11-02T06:05:28.295Z,76.30
2022-11-02T06:07:59.829Z,76.22
2022-11-02T06:10:28.736Z,76.48
2022-11-02T06:12:59.707Z,76.79
2022-11-02T06:15:28.732Z,77.19
2022-11-02T06:17:56.971Z,77.28
2022-11-02T06:20:25.460Z,76.75
2022-11-02T06:22:53.727Z,77.09
2022-11-02T06:25:22.070Z,77.22
2022-11-02T06:27:55.237Z,77.41
2022-11-02T06:30:27.444Z,77.21
2022-11-02T06:32:55.867Z,77.43
2022-11-02T06:35:24.480Z,77.61
2022-11-02T06:37:52.823Z,77.48
2022-11-02T06:40:22.781Z,77.60
2022-11-02T06:43:15.301Z,77.51
2022-11-02T06:45:46.852Z,77.83
2022-11-02T06:48:15.301Z,77.33
2022-11-02T06:50:43.642Z,77.57
2022-11-02T06:53:11.944Z,77.18
2022-11-02T06:55:40.413Z,77.37
2022-11-02T06:58:08.710Z,77.44
2022-11-02T07:00:37.041Z,76.71
2022-11-02T07:03:08.769Z,76.68
2022-11-02T07:05:37.773Z,76.59
2022-11-02T07:08:06.261Z,76.11
2022-11-02T07:10:36.181Z,76.56
2022-11-02T07:13:04.646Z,75.95
2022-11-02T07:15:33.048Z,76.40
2022-11-02T07:18:01.291Z,76.22
2022-11-02T07:20:31.550Z,76.30
2022-11-02T07:23:01.947Z,76.24
2022-11-02T07:25:32.273Z,75.29
2022-11-02T07:28:01.264Z,74.23
2022-11-02T07:30:30.540Z,73.50
2022-11-02T07:32:59.105Z,72.49
2022-11-02T07:35:27.783Z,70.78
2022-11-02T07:37:58.622Z,68.89
2022-11-02T07:40:28.385Z,67.01
2022-11-02T07:42:56.884Z,66.15
2022-11-02T07:45:50.908Z,63.66
2022-11-02T07:48:23.132Z,63.43
2022-11-02T07:50:51.339Z,62.59
2022-11-02T07:53:22.040Z,62.07
2022-11-02T07:55:50.285Z,61.06
2022-11-02T07:58:18.661Z,59.94
2022-11-02T08:00:47.044Z,59.88
2022-11-02T08:03:15.852Z,60.12
2022-11-02T08:05:44.432Z,60.24
2022-11-02T08:08:15.256Z,60.36
2022-11-02T08:10:46.712Z,60.00
2022-11-02T08:13:17.588Z,59.95
2022-11-02T08:15:46.313Z,59.08
2022-11-02T08:18:16.912Z,57.22
2022-11-02T08:20:46.016Z,56.75
2022-11-02T08:23:15.690Z,57.68
2022-11-02T08:25:46.411Z,58.88
2022-11-02T08:28:17.085Z,57.06
2022-11-02T08:30:45.343Z,57.05
2022-11-02T08:33:16.282Z,57.04
2022-11-02T08:35:46.080Z,53.33
2022-11-02T08:38:14.847Z,54.05
2022-11-02T08:40:43.373Z,54.52
2022-11-02T08:43:15.224Z,53.77
2022-11-02T08:48:33.961Z,53.14
2022-11-02T08:51:02.864Z,53.07
2022-11-02T08:53:31.384Z,52.84
2022-11-02T08:55:59.632Z,53.77
2022-11-02T08:58:29.446Z,54.09
2022-11-02T09:00:58.085Z,53.53
2022-11-02T09:03:27.445Z,54.46
2022-11-02T09:05:59.913Z,54.41
2022-11-02T09:08:29.189Z,54.86
2022-11-02T09:11:01.117Z,54.90
2022-11-02T09:13:31.216Z,55.19
2022-11-02T09:16:01.238Z,55.26
2022-11-02T09:18:29.903Z,53.07
2022-11-02T09:20:58.395Z,52.59
2022-11-02T09:23:27.657Z,52.83
2022-11-02T09:25:55.886Z,52.61
2022-11-02T09:28:24.255Z,52.05
2022-11-02T09:30:53.980Z,51.58
2022-11-02T09:33:22.412Z,52.05
2022-11-02T09:35:51.220Z,51.74
2022-11-02T09:38:19.687Z,52.08
2022-11-02T09:40:54.796Z,53.12
2022-11-02T09:43:37.845Z,52.53
2022-11-02T09:46:11.043Z,51.97
2022-11-02T09:48:43.152Z,49.42
2022-11-02T09:51:14.868Z,50.98
2022-11-02T09:53:54.368Z,51.43
2022-11-02T09:56:22.700Z,50.99
2022-11-02T09:58:58.950Z,51.43
2022-11-02T10:01:41.024Z,51.46
2022-11-02T10:04:34.067Z,51.27
2022-11-02T10:07:10.548Z,51.19
2022-11-02T10:09:50.814Z,51.07
2022-11-02T10:12:27.036Z,50.46
2022-11-02T10:15:03.513Z,50.97
2022-11-02T10:17:37.668Z,50.11
2022-11-02T10:20:17.942Z,48.41
2022-11-02T10:22:48.604Z,48.47
2022-11-02T10:25:18.216Z,48.57
2022-11-02T10:27:51.456Z,47.82
2022-11-02T10:30:21.252Z,45.20
2022-11-02T10:32:54.015Z,44.61
2022-11-02T10:35:41.199Z,45.10
2022-11-02T10:38:31.317Z,44.49
2022-11-02T10:41:16.334Z,42.91
2022-11-02T10:44:04.556Z,45.59
2022-11-02T10:46:50.354Z,44.63
2022-11-02T10:49:42.887Z,45.43
2022-11-02T10:52:15.212Z,45.63
2022-11-02T10:54:43.651Z,44.36
2022-11-02T10:57:14.429Z,43.73
2022-11-02T10:59:43.002Z,42.66
2022-11-02T11:02:14.852Z,42.95
2022-11-02T11:04:44.889Z,42.81
2022-11-02T11:07:17.955Z,43.45
2022-11-02T11:09:53.024Z,43.87
2022-11-02T11:12:25.799Z,44.02
2022-11-02T11:20:39.595Z,44.56
2022-11-02T11:23:20.516Z,44.44
2022-11-02T11:25:58.952Z,43.91
2022-11-02T11:28:31.032Z,44.20
2022-11-02T11:31:09.966Z,44.48
2022-11-02T11:33:48.236Z,44.55
2022-11-02T11:36:31.647Z,44.54
2022-11-02T11:39:01.717Z,43.01
2022-11-02T11:41:31.205Z,42.71
2022-11-02T11:43:59.931Z,43.23
2022-11-02T11:46:41.425Z,43.75
2022-11-02T11:49:27.495Z,43.35
2022-11-02T11:52:05.989Z,44.06
2022-11-02T11:54:35.133Z,41.55
2022-11-02T11:57:24.992Z,43.10
2022-11-02T11:59:55.516Z,42.52
2022-11-02T12:02:25.654Z,40.58
2022-11-02T12:05:01.438Z,40.84
2022-11-02T12:08:08.297Z,39.90
2022-11-02T12:10:56.714Z,39.50
2022-11-02T12:13:53.183Z,40.03
2022-11-02T12:16:31.185Z,40.66
2022-11-02T12:19:14.784Z,40.51
2022-11-02T12:21:55.330Z,41.25
2022-11-02T12:24:50.457Z,40.90
2022-11-02T12:27:33.875Z,41.22
2022-11-02T12:30:12.679Z,41.29
2022-11-02T12:32:59.044Z,41.12
2022-11-02T12:35:47.492Z,40.82
2022-11-02T12:38:35.533Z,40.93
2022-11-02T12:41:06.153Z,41.74
2022-11-02T12:43:44.022Z,41.18
2022-11-02T12:46:26.429Z,40.52
2022-11-02T12:49:20.906Z,39.23
2022-11-02T12:51:59.188Z,39.78
2022-11-02T12:54:39.081Z,40.22
2022-11-02T12:57:14.422Z,40.88
2022-11-02T12:59:45.937Z,41.65
2022-11-02T13:02:19.830Z,41.27
2022-11-02T13:04:52.730Z,42.29
2022-11-02T13:07:27.877Z,41.88
2022-11-02T13:10:02.205Z,41.52
2022-11-02T13:12:36.609Z,41.02
2022-11-02T13:15:11.931Z,39.62
2022-11-02T13:17:44.992Z,39.55
2022-11-02T13:20:18.566Z,40.00
2022-11-02T13:22:50.342Z,40.01
2022-11-02T13:25:22.438Z,39.64
2022-11-02T13:27:55.189Z,39.92
2022-11-02T13:30:25.975Z,39.96
2022-11-02T13:32:59.959Z,39.69
2022-11-02T13:35:32.349Z,38.49
2022-11-02T13:38:06.534Z,39.25
2022-11-02T13:40:39.981Z,38.71
2022-11-02T13:43:38.196Z,39.57
2022-11-02T13:46:20.787Z,39.30
2022-11-02T13:49:00.742Z,39.95
2022-11-02T13:51:37.936Z,40.25
2022-11-02T13:54:14.189Z,40.33
2022-11-02T13:56:43.934Z,40.23
2022-11-02T13:59:22.490Z,40.94
2022-11-02T14:01:54.343Z,40.54
2022-11-02T14:04:23.724Z,39.92
2022-11-02T14:06:56.624Z,40.95
2022-11-02T14:09:30.312Z,41.73
2022-11-02T14:12:41.412Z,41.58
2022-11-02T14:15:38.677Z,39.62
2022-11-02T14:18:17.009Z,39.52
2022-11-02T14:20:47.771Z,40.02
2022-11-02T14:23:36.414Z,40.55
2022-11-02T14:26:04.882Z,41.31
2022-11-02T14:28:35.363Z,41.65
2022-11-02T14:31:32.599Z,41.85
2022-11-02T14:34:22.349Z,40.90
2022-11-02T14:37:05.527Z,40.85
2022-11-02T14:39:46.620Z,40.86
2022-11-02T14:42:30.772Z,41.19
2022-11-02T14:45:13.532Z,41.76
2022-11-02T14:47:42.967Z,41.47
2022-11-02T14:50:19.342Z,41.63
2022-11-02T14:53:03.426Z,42.16
2022-11-02T14:55:34.882Z,42.07
2022-11-02T14:58:10.918Z,41.95
2022-11-02T15:00:56.018Z,42.33
2022-11-02T15:03:33.963Z,42.57
2022-11-02T15:06:06.479Z,42.51
2022-11-02T15:08:37.207Z,42.90
2022-11-02T15:11:48.279Z,43.14
2022-11-02T15:14:55.805Z,43.40
2022-11-02T15:17:52.603Z,43.78
2022-11-02T15:20:32.242Z,44.19
2022-11-02T15:23:24.077Z,44.37
2022-11-02T15:26:00.000Z,44.88
2022-11-02T15:28:33.654Z,44.96
2022-11-02T15:31:07.769Z,45.43
2022-11-02T15:33:39.705Z,45.36
2022-11-02T15:36:14.390Z,45.75
2022-11-02T15:38:49.685Z,46.03
2022-11-02T15:41:26.933Z,46.64
2022-11-02T15:44:27.476Z,46.78
2022-11-02T15:47:05.484Z,47.47
2022-11-02T15:49:56.956Z,48.13
2022-11-02T15:53:16.413Z,48.68
2022-11-02T15:55:52.121Z,49.38
2022-11-02T15:58:30.779Z,50.09
2022-11-02T16:01:15.156Z,50.68
2022-11-02T16:03:46.722Z,51.49
2022-11-02T16:06:15.326Z,51.70
2022-11-02T16:08:44.211Z,52.02
2022-11-02T16:11:17.564Z,52.52
2022-11-02T16:14:08.123Z,52.83
2022-11-02T16:16:36.148Z,53.21
2022-11-02T16:19:04.658Z,53.90
2022-11-02T16:21:33.477Z,54.15
2022-11-02T16:24:02.296Z,54.82
2022-11-02T16:26:31.986Z,55.11
2022-11-02T16:29:01.558Z,55.85
2022-11-02T16:31:32.181Z,54.87
2022-11-02T16:34:02.354Z,56.55
2022-11-02T16:36:32.667Z,58.13
2022-11-02T16:39:03.682Z,58.61
2022-11-02T16:41:35.135Z,59.00
2022-11-02T16:44:10.020Z,59.23
2022-11-02T16:46:43.577Z,59.85
2022-11-02T16:49:18.577Z,60.35
2022-11-02T16:51:52.624Z,60.65
2022-11-02T16:54:41.461Z,60.53
2022-11-02T16:57:17.948Z,60.54
2022-11-02T16:59:52.831Z,60.59
2022-11-02T17:02:35.055Z,60.80
2022-11-02T17:05:06.620Z,61.15
2022-11-02T17:07:41.661Z,61.36
2022-11-02T17:10:23.985Z,61.73
2022-11-02T17:13:00.877Z,61.96
2022-11-02T17:15:33.280Z,62.24
2022-11-02T17:18:28.651Z,62.57
2022-11-02T17:21:17.076Z,63.03
2022-11-02T17:23:47.265Z,63.65
2022-11-02T17:26:36.214Z,63.55
2022-11-02T17:29:32.268Z,63.68
2022-11-02T17:32:01.975Z,63.79
2022-11-02T17:34:31.710Z,63.94
2022-11-02T17:37:00.892Z,64.20
2022-11-02T17:39:29.450Z,64.53
2022-11-02T17:42:16.721Z,64.31
2022-11-02T17:44:46.725Z,64.85
2022-11-02T17:47:19.817Z,64.83
2022-11-02T17:49:48.193Z,64.80
2022-11-02T17:52:19.302Z,64.57
2022-11-02T17:54:47.925Z,64.38
2022-11-02T17:57:17.283Z,64.01
2022-11-02T17:59:47.199Z,64.32
2022-11-02T18:02:17.102Z,64.65
2022-11-02T18:04:45.667Z,64.93
2022-11-02T18:07:13.951Z,65.37
2022-11-02T18:09:42.263Z,64.96
2022-11-02T18:12:14.706Z,65.05
2022-11-02T18:14:43.488Z,65.79
2022-11-02T18:17:13.900Z,65.79
2022-11-02T18:19:42.169Z,65.72
2022-11-02T18:22:11.762Z,65.70
2022-11-02T18:24:40.216Z,65.96
2022-11-02T18:27:08.650Z,66.00
2022-11-02T18:29:37.922Z,66.22
2022-11-02T18:32:06.571Z,66.32
2022-11-02T18:34:36.987Z,66.16
2022-11-02T18:37:05.253Z,66.75
2022-11-02T18:39:35.618Z,66.88
2022-11-02T18:42:06.301Z,66.81
2022-11-02T18:44:34.748Z,67.02
2022-11-02T18:47:03.183Z,67.50
2022-11-02T18:49:31.496Z,67.01
2022-11-02T18:52:01.343Z,66.82
2022-11-02T18:54:29.661Z,63.42
2022-11-02T18:56:57.845Z,64.90
2022-11-02T18:59:26.294Z,65.40
2022-11-02T19:01:55.218Z,66.15
2022-11-02T19:04:23.698Z,66.64
2022-11-02T19:07:13.788Z,66.47
2022-11-02T19:09:46.544Z,67.03
2022-11-02T19:12:17.870Z,67.04
2022-11-02T19:14:49.634Z,67.51
2022-11-02T19:17:19.296Z,67.60
2022-11-02T19:19:48.589Z,67.53
2022-11-02T19:22:18.341Z,67.26
2022-11-02T19:24:48.296Z,67.50
2022-11-02T19:27:18.447Z,67.63
2022-11-02T19:29:48.044Z,67.95
2022-11-02T19:32:16.484Z,67.89
2022-11-02T19:34:44.746Z,68.23
2022-11-02T19:37:13.473Z,68.32
2022-11-02T19:39:41.789Z,67.90
2022-11-02T19:42:11.704Z,68.22
2022-11-02T19:44:42.779Z,67.89
2022-11-02T19:47:11.613Z,68.17
2022-11-02T19:49:39.839Z,68.01
2022-11-02T19:52:08.189Z,68.30
2022-11-02T19:54:36.446Z,68.53
2022-11-02T19:57:04.961Z,68.42
2022-11-02T19:59:48.796Z,68.28
2022-11-02T20:02:18.767Z,68.65
2022-11-02T20:04:47.797Z,69.33
2022-11-02T20:07:16.698Z,68.99
2022-11-02T20:09:45.882Z,68.72
2022-11-02T20:12:19.605Z,67.84
2022-11-02T20:14:50.224Z,67.61
2022-11-02T20:17:31.247Z,67.89
2022-11-02T20:20:06.740Z,68.06
2022-11-02T20:22:42.019Z,68.05
2022-11-02T20:25:17.098Z,67.64
2022-11-02T20:27:50.641Z,67.32
2022-11-02T20:30:22.436Z,67.56
2022-11-02T20:32:56.207Z,67.96
2022-11-02T20:35:26.710Z,68.42
2022-11-02T20:37:56.616Z,68.69
2022-11-02T20:40:25.866Z,68.65
2022-11-02T20:42:54.123Z,68.73
2022-11-02T20:45:24.806Z,69.32
2022-11-02T20:47:54.434Z,69.18
2022-11-02T20:50:28.928Z,69.19
2022-11-02T20:52:58.801Z,69.46
2022-11-02T20:55:28.156Z,69.50
2022-11-02T20:57:56.775Z,69.75
2022-11-02T21:00:26.802Z,69.62
2022-11-02T21:02:59.148Z,69.70
2022-11-02T21:05:28.929Z,69.77
2022-11-02T21:07:57.536Z,69.93
2022-11-02T21:10:25.819Z,70.09
2022-11-02T21:13:11.171Z,69.89
2022-11-02T21:15:41.084Z,69.77
2022-11-02T21:18:12.609Z,69.92
2022-11-02T21:20:41.785Z,69.94
2022-11-02T21:23:14.115Z,70.17
2022-11-02T21:25:42.396Z,69.92
2022-11-02T21:28:11.027Z,70.09
2022-11-02T21:30:44.053Z,70.20
2022-11-02T21:33:12.324Z,70.10
2022-11-02T21:35:40.656Z,69.78
2022-11-02T21:38:11.718Z,69.57
2022-11-02T21:40:42.127Z,69.50
2022-11-02T21:43:10.363Z,69.50
2022-11-02T21:46:07.023Z,69.16
2022-11-02T21:49:05.387Z,69.10
2022-11-02T21:51:42.008Z,69.03
2022-11-02T21:54:18.626Z,68.88
2022-11-02T21:56:53.680Z,69.24
2022-11-02T21:59:22.106Z,69.35
2022-11-02T22:01:58.159Z,68.84
2022-11-02T22:04:29.047Z,69.42
2022-11-02T22:06:57.727Z,69.75
2022-11-02T22:09:27.170Z,69.80
2022-11-02T22:12:10.310Z,69.77
2022-11-02T22:14:39.524Z,70.01
2022-11-02T22:17:21.844Z,70.05
2022-11-02T22:19:51.968Z,70.21
2022-11-02T22:22:20.252Z,70.24
2022-11-02T22:24:49.270Z,69.82
2022-11-02T22:27:17.615Z,69.56
2022-11-02T22:29:45.897Z,69.76
2022-11-02T22:32:15.788Z,69.71
2022-11-02T22:34:44.107Z,69.87
2022-11-02T22:37:30.657Z,69.89
2022-11-02T22:39:58.951Z,70.17
2022-11-02T22:42:28.204Z,70.15
2022-11-02T22:44:58.603Z,70.34
2022-11-02T22:47:28.360Z,70.17
2022-11-02T22:49:58.899Z,70.21
2022-11-02T22:52:27.434Z,70.62
2022-11-02T22:54:59.872Z,70.71
2022-11-02T22:57:28.408Z,71.00
2022-11-02T23:00:00.140Z,70.92
2022-11-02T23:02:35.649Z,71.07
2022-11-02T23:05:04.005Z,70.81
2022-11-02T23:07:32.468Z,71.14
2022-11-02T23:10:20.887Z,71.43
2022-11-02T23:12:48.153Z,71.00
2022-11-02T23:15:16.705Z,71.26
2022-11-02T23:17:46.439Z,71.24
2022-11-02T23:20:13.993Z,71.05
2022-11-02T23:22:59.498Z,71.39
2022-11-02T23:25:27.813Z,70.88
2022-11-02T23:28:14.815Z,70.82
2022-11-02T23:30:57.700Z,71.08
2022-11-02T23:33:30.933Z,71.00
2022-11-02T23:36:13.083Z,71.19
2022-11-02T23:39:00.114Z,71.48
2022-11-02T23:41:29.592Z,71.46
2022-11-02T23:44:11.942Z,71.56
2022-11-02T23:46:41.600Z,71.48
2022-11-02T23:49:11.516Z,71.80
2022-11-02T23:51:57.124Z,71.58
2022-11-02T23:54:43.069Z,71.34
2022-11-02T23:57:11.672Z,71.94
2022-11-02T23:59:40.521Z,71.56
